createdAt,value
2022-11-12T00:02:33.018Z,102434.78
2022-11-12T00:05:21.673Z,102432.22
2022-11-12T00:08:08.936Z,102443.53
2022-11-12T00:10:55.903Z,102438.34
2022-11-12T00:13:42.912Z,102434.00
2022-11-12T00:16:29.639Z,102437.47
2022-11-12T00:19:16.872Z,102434.03
2022-11-12T00:22:05.160Z,102438.41
2022-11-12T00:24:52.099Z,102440.16
2022-11-12T00:27:39.408Z,102434.09
2022-11-12T00:30:26.285Z,102419.28
2022-11-12T00:33:12.923Z,102421.91
2022-11-12T00:36:01.055Z,102436.75
2022-11-12T00:38:49.327Z,102432.38
2022-11-12T00:41:36.136Z,102440.22
2022-11-12T00:44:22.841Z,102436.78
2022-11-12T00:47:10.173Z,102438.50
2022-11-12T00:49:57.223Z,102436.75
2022-11-12T00:52:44.166Z,102442.84
2022-11-12T00:55:32.179Z,102438.50
2022-11-12T00:58:19.158Z,102441.97
2022-11-12T01:01:08.555Z,102434.09
2022-11-12T01:03:55.769Z,102439.31
2022-11-12T01:06:43.057Z,102440.16
2022-11-12T01:09:30.422Z,102440.97
2022-11-12T01:12:18.619Z,102438.34
2022-11-12T01:15:07.779Z,102440.06
2022-11-12T01:17:55.074Z,102439.19
2022-11-12T01:20:42.421Z,102441.78
2022-11-12T01:23:29.966Z,102440.06
2022-11-12T01:26:20.761Z,102431.34
2022-11-12T01:29:09.261Z,102435.66
2022-11-12T01:31:56.161Z,102437.38
2022-11-12T01:34:43.427Z,102433.00
2022-11-12T01:37:30.738Z,102435.59
2022-11-12T01:40:17.917Z,102428.53
2022-11-12T01:43:05.081Z,102420.72
2022-11-12T01:45:53.836Z,102422.50
2022-11-12T01:48:50.047Z,102427.72
2022-11-12T01:51:44.663Z,102427.75
2022-11-12T01:54:32.449Z,102419.06
2022-11-12T01:57:30.709Z,102426.03
2022-11-12T02:00:21.610Z,102426.94
2022-11-12T02:03:16.861Z,102423.41
2022-11-12T02:06:09.037Z,102422.53
2022-11-12T02:08:56.595Z,102417.25
2022-11-12T02:11:44.010Z,102429.44
2022-11-12T02:14:30.359Z,102431.16
2022-11-12T02:17:17.802Z,102431.16
2022-11-12T02:20:09.559Z,102434.63
2022-11-12T02:22:57.886Z,102432.91
2022-11-12T02:25:44.538Z,102434.63
2022-11-12T02:28:33.783Z,102431.16
2022-11-12T02:31:20.691Z,102422.41
2022-11-12T02:34:07.671Z,102421.53
2022-11-12T02:36:54.549Z,102420.63
2022-11-12T02:39:42.803Z,102415.38
2022-11-12T02:42:30.110Z,102417.13
2022-11-12T02:45:17.532Z,102415.38
2022-11-12T02:48:04.808Z,102417.13
2022-11-12T02:50:51.966Z,102416.22
2022-11-12T02:53:39.208Z,102405.75
2022-11-12T02:56:27.484Z,102403.09
2022-11-12T02:59:14.627Z,102401.34
2022-11-12T03:02:01.676Z,102399.56
2022-11-12T03:04:49.634Z,102400.41
2022-11-12T03:07:37.178Z,102403.00
2022-11-12T03:10:23.957Z,102401.22
2022-11-12T03:13:12.300Z,102397.72
2022-11-12T03:16:01.608Z,102406.44
2022-11-12T03:18:48.499Z,102410.75
2022-11-12T03:21:35.295Z,102409.00
2022-11-12T03:24:22.538Z,102402.03
2022-11-12T03:27:09.328Z,102409.03
2022-11-12T03:29:57.468Z,102402.97
2022-11-12T03:32:44.633Z,102397.72
2022-11-12T03:35:32.295Z,102396.88
2022-11-12T03:38:19.327Z,102392.47
2022-11-12T03:41:06.564Z,102392.47
2022-11-12T03:43:53.414Z,102398.50
2022-11-12T03:46:44.168Z,102401.94
2022-11-12T03:49:31.697Z,102405.38
2022-11-12T03:52:18.636Z,102406.19
2022-11-12T03:55:06.028Z,102407.06
2022-11-12T03:57:54.624Z,102394.00
2022-11-12T04:00:41.944Z,102390.47
2022-11-12T04:03:30.090Z,102393.09
2022-11-12T04:06:34.582Z,102388.75
2022-11-12T04:09:21.993Z,102388.78
2022-11-12T04:12:22.965Z,102386.16
2022-11-12T04:15:10.844Z,102379.16
2022-11-12T04:18:15.416Z,102373.03
2022-11-12T04:21:21.215Z,102380.75
2022-11-12T04:24:08.066Z,102387.63
2022-11-12T04:26:53.918Z,102391.97
2022-11-12T04:29:58.614Z,102388.44
2022-11-12T04:32:49.799Z,102388.44
2022-11-12T04:35:36.867Z,102396.16
2022-11-12T04:38:25.445Z,102396.09
2022-11-12T04:41:30.463Z,102389.97
2022-11-12T04:44:35.167Z,102388.22
2022-11-12T04:47:22.294Z,102383.81
2022-11-12T04:50:15.380Z,102388.16
2022-11-12T04:53:02.815Z,102381.16
2022-11-12T04:55:53.056Z,102386.28
2022-11-12T04:58:40.292Z,102381.91
2022-11-12T05:01:27.233Z,102398.38
2022-11-12T05:04:14.570Z,102392.25
2022-11-12T05:07:02.466Z,102392.22
2022-11-12T05:09:49.823Z,102394.84
2022-11-12T05:12:38.114Z,102393.09
2022-11-12T05:15:25.357Z,102393.03
2022-11-12T05:18:12.324Z,102390.38
2022-11-12T05:21:18.927Z,102402.50
2022-11-12T05:24:06.747Z,102403.31
2022-11-12T05:26:54.593Z,102403.31
2022-11-12T05:29:43.663Z,102407.59
2022-11-12T05:32:30.539Z,102409.34
2022-11-12T05:35:17.596Z,102411.97
2022-11-12T05:38:04.559Z,102416.28
2022-11-12T05:40:51.782Z,102415.41
2022-11-12T05:43:38.527Z,102410.22
2022-11-12T05:46:26.976Z,102420.59
2022-11-12T05:49:14.271Z,102419.72
2022-11-12T05:52:01.224Z,102422.31
2022-11-12T05:54:48.079Z,102424.03
2022-11-12T05:57:34.818Z,102433.56
2022-11-12T06:00:22.202Z,102427.47
2022-11-12T06:03:11.776Z,102432.63
2022-11-12T06:05:59.058Z,102424.75
2022-11-12T06:08:46.134Z,102416.06
2022-11-12T06:11:34.078Z,102422.09
2022-11-12T06:14:21.255Z,102429.03
2022-11-12T06:17:08.172Z,102423.81
2022-11-12T06:19:56.474Z,102425.59
2022-11-12T06:22:43.075Z,102434.31
2022-11-12T06:25:30.658Z,102432.50
2022-11-12T06:28:17.710Z,102428.97
2022-11-12T06:31:04.784Z,102428.09
2022-11-12T06:33:52.046Z,102434.19
2022-11-12T06:36:40.371Z,102425.56
2022-11-12T06:39:27.468Z,102428.16
2022-11-12T06:42:14.548Z,102431.59
2022-11-12T06:45:01.702Z,102438.59
2022-11-12T06:47:48.480Z,102428.16
2022-11-12T06:50:35.670Z,102431.59
2022-11-12T06:53:24.263Z,102433.31
2022-11-12T06:56:13.449Z,102428.09
2022-11-12T06:59:00.559Z,102437.72
2022-11-12T07:01:47.472Z,102434.25
2022-11-12T07:04:34.106Z,102434.31
2022-11-12T07:07:21.326Z,102436.09
2022-11-12T07:10:10.776Z,102440.47
2022-11-12T07:12:57.348Z,102437.03
2022-11-12T07:15:44.639Z,102440.53
2022-11-12T07:18:32.470Z,102445.78
2022-11-12T07:21:21.781Z,102440.56
2022-11-12T07:24:09.633Z,102438.84
2022-11-12T07:26:57.856Z,102434.59
2022-11-12T07:29:48.946Z,102437.22
2022-11-12T07:32:43.260Z,102440.69
2022-11-12T07:35:31.815Z,102435.47
2022-11-12T07:38:18.910Z,102434.59
2022-11-12T07:41:08.452Z,102431.19
2022-11-12T07:43:56.867Z,102430.38
2022-11-12T07:46:44.027Z,102439.19
2022-11-12T07:49:31.055Z,102429.69
2022-11-12T07:52:18.022Z,102429.75
2022-11-12T07:55:06.019Z,102435.78
2022-11-12T07:57:53.996Z,102433.16
2022-11-12T08:00:42.351Z,102429.69
2022-11-12T08:03:29.378Z,102436.69
2022-11-12T08:06:16.379Z,102440.16
2022-11-12T08:09:06.853Z,102434.09
2022-11-12T08:11:55.683Z,102433.13
2022-11-12T08:14:42.940Z,102447.03
2022-11-12T08:17:31.186Z,102448.75
2022-11-12T08:20:18.554Z,102447.06
2022-11-12T08:23:05.922Z,102447.91
2022-11-12T08:25:52.774Z,102457.50
2022-11-12T08:28:40.603Z,102448.88
2022-11-12T08:31:27.823Z,102448.88
2022-11-12T08:34:20.126Z,102452.41
2022-11-12T08:37:10.031Z,102447.19
2022-11-12T08:39:56.900Z,102445.44
2022-11-12T08:42:43.913Z,102438.50
2022-11-12T08:45:33.315Z,102448.94
2022-11-12T08:48:20.498Z,102447.19
2022-11-12T08:51:09.043Z,102448.13
2022-11-12T08:53:56.158Z,102454.31
2022-11-12T08:56:43.559Z,102450.84
2022-11-12T08:59:30.539Z,102454.38
2022-11-12T09:02:17.665Z,102447.41
2022-11-12T09:05:04.879Z,102452.66
2022-11-12T09:07:59.967Z,102457.03
2022-11-12T09:10:48.107Z,102457.91
2022-11-12T09:13:35.904Z,102459.66
2022-11-12T09:16:24.189Z,102454.44
2022-11-12T09:19:11.537Z,102464.94
2022-11-12T09:21:58.693Z,102459.75
2022-11-12T09:24:46.826Z,102446.75
2022-11-12T09:27:33.955Z,102444.22
2022-11-12T09:30:21.325Z,102451.06
2022-11-12T09:33:08.500Z,102443.25
2022-11-12T09:35:57.148Z,102447.59
2022-11-12T09:38:44.330Z,102447.66
2022-11-12T09:41:37.574Z,102454.66
2022-11-12T09:44:24.770Z,102446.94
2022-11-12T09:47:19.841Z,102445.31
2022-11-12T09:50:21.526Z,102442.69
2022-11-12T09:53:17.656Z,102439.31
2022-11-12T09:56:11.647Z,102441.91
2022-11-12T09:59:00.027Z,102439.31
2022-11-12T10:02:01.509Z,102437.59
2022-11-12T10:05:14.814Z,102442.81
2022-11-12T10:08:27.879Z,102435.94
2022-11-12T10:12:06.426Z,102433.31
2022-11-12T10:15:44.320Z,102428.16
2022-11-12T10:18:46.736Z,102434.28
2022-11-12T10:21:42.766Z,102423.91
2022-11-12T10:24:36.525Z,102423.06
2022-11-12T10:27:28.339Z,102423.94
2022-11-12T10:30:19.717Z,102416.16
2022-11-12T10:33:07.114Z,102417.03
2022-11-12T10:35:54.927Z,102414.41
2022-11-12T10:38:44.621Z,102417.03
2022-11-12T10:41:33.837Z,102414.41
2022-11-12T10:44:27.601Z,102415.34
2022-11-12T10:47:32.993Z,102411.91
2022-11-12T10:50:23.918Z,102414.56
2022-11-12T10:53:13.786Z,102409.34
2022-11-12T10:56:03.123Z,102401.50
2022-11-12T10:59:12.186Z,102401.50
2022-11-12T11:02:02.092Z,102403.25
2022-11-12T11:04:50.381Z,102394.50
2022-11-12T11:07:37.278Z,102405.84
2022-11-12T11:10:27.854Z,102405.94
2022-11-12T11:13:23.561Z,102403.38
2022-11-12T11:16:15.093Z,102397.34
2022-11-12T11:19:06.305Z,102389.56
2022-11-12T11:22:39.989Z,102391.28
2022-11-12T11:25:29.478Z,102393.06
2022-11-12T11:28:30.263Z,102396.59
2022-11-12T11:31:28.131Z,102390.44
2022-11-12T11:34:30.942Z,102391.28
2022-11-12T11:37:28.057Z,102380.88
2022-11-12T11:40:26.626Z,102389.66
2022-11-12T11:43:38.755Z,102390.53
2022-11-12T11:46:46.366Z,102382.75
2022-11-12T11:50:11.396Z,102382.81
2022-11-12T11:53:19.949Z,102380.25
2022-11-12T11:56:20.406Z,102382.06
2022-11-12T11:59:26.286Z,102373.41
2022-11-12T12:02:29.246Z,102376.88
2022-11-12T12:05:33.886Z,102373.41
2022-11-12T12:08:32.701Z,102370.78
2022-11-12T12:11:28.745Z,102369.03
2022-11-12T12:14:40.784Z,102364.69
2022-11-12T12:17:48.875Z,102359.50
2022-11-12T12:20:47.563Z,102358.66
2022-11-12T12:23:41.141Z,102344.72
2022-11-12T12:26:32.074Z,102351.72
2022-11-12T12:29:27.225Z,102344.72
2022-11-12T12:32:23.937Z,102346.50
2022-11-12T12:35:23.796Z,102343.00
2022-11-12T12:38:19.475Z,102340.41
2022-11-12T12:41:17.826Z,102342.19
2022-11-12T12:44:07.440Z,102328.28
2022-11-12T12:47:00.053Z,102318.69
2022-11-12T12:49:49.647Z,102322.22
2022-11-12T12:53:01.693Z,102323.91
2022-11-12T12:55:52.211Z,102313.44
2022-11-12T12:58:47.020Z,102312.59
2022-11-12T13:01:36.559Z,102316.94
2022-11-12T13:04:54.967Z,102307.31
2022-11-12T13:07:45.749Z,102310.78
2022-11-12T13:10:49.462Z,102304.59
2022-11-12T13:13:39.443Z,102308.03
2022-11-12T13:17:00.341Z,102314.06
2022-11-12T13:20:09.335Z,102307.09
2022-11-12T13:22:58.008Z,102298.44
2022-11-12T13:25:45.052Z,102299.31
2022-11-12T13:28:32.198Z,102295.81
2022-11-12T13:31:30.520Z,102294.06
2022-11-12T13:34:26.972Z,102297.59
2022-11-12T13:37:22.190Z,102292.38
2022-11-12T13:40:16.610Z,102284.56
2022-11-12T13:43:14.016Z,102283.69
2022-11-12T13:46:20.027Z,102282.84
2022-11-12T13:49:12.414Z,102282.00
2022-11-12T13:52:00.746Z,102282.88
2022-11-12T13:54:47.938Z,102276.78
2022-11-12T13:57:35.845Z,102273.28
2022-11-12T14:00:29.844Z,102274.13
2022-11-12T14:03:20.159Z,102271.50
2022-11-12T14:06:20.768Z,102261.91
2022-11-12T14:09:31.858Z,102261.03
2022-11-12T14:12:48.210Z,102259.28
2022-11-12T14:15:59.893Z,102255.81
2022-11-12T14:19:15.146Z,102254.03
2022-11-12T14:22:12.051Z,102257.47
2022-11-12T14:25:02.453Z,102260.06
2022-11-12T14:27:51.791Z,102261.75
2022-11-12T14:30:45.955Z,102256.53
2022-11-12T14:33:34.052Z,102253.09
2022-11-12T14:36:22.208Z,102257.44
2022-11-12T14:39:12.697Z,102248.72
2022-11-12T14:42:01.278Z,102250.47
2022-11-12T14:44:49.405Z,102241.72
2022-11-12T14:47:36.550Z,102248.69
2022-11-12T14:50:30.204Z,102249.53
2022-11-12T14:53:27.769Z,102241.63
2022-11-12T14:56:25.614Z,102245.09
2022-11-12T14:59:15.075Z,102236.38
2022-11-12T15:02:34.953Z,102235.50
2022-11-12T15:05:22.083Z,102240.72
2022-11-12T15:08:13.243Z,102238.06
2022-11-12T15:11:21.742Z,102238.03
2022-11-12T15:14:21.459Z,102237.13
2022-11-12T15:17:29.834Z,102238.81
2022-11-12T15:20:20.057Z,102239.66
2022-11-12T15:23:07.318Z,102234.41
2022-11-12T15:25:59.938Z,102231.75
2022-11-12T15:29:00.212Z,102230.00
2022-11-12T15:31:49.390Z,102225.66
2022-11-12T15:34:49.479Z,102223.03
2022-11-12T15:37:43.376Z,102231.72
2022-11-12T15:40:31.876Z,102223.00
2022-11-12T15:43:22.412Z,102220.41
2022-11-12T15:46:14.745Z,102218.66
2022-11-12T15:49:02.494Z,102216.00
2022-11-12T15:51:50.635Z,102213.38
2022-11-12T15:54:41.041Z,102212.53
2022-11-12T15:57:32.690Z,102207.28
2022-11-12T16:00:22.467Z,102204.69
2022-11-12T16:03:15.858Z,102194.25
2022-11-12T16:06:08.676Z,102197.72
2022-11-12T16:08:57.190Z,102189.03
2022-11-12T16:11:44.478Z,102189.88
2022-11-12T16:14:32.083Z,102187.31
2022-11-12T16:17:20.014Z,102188.19
2022-11-12T16:20:15.789Z,102187.31
2022-11-12T16:23:03.176Z,102182.97
2022-11-12T16:25:51.172Z,102184.69
2022-11-12T16:28:38.040Z,102187.34
2022-11-12T16:31:25.264Z,102183.88
2022-11-12T16:34:12.820Z,102184.72
2022-11-12T16:37:00.127Z,102182.13
2022-11-12T16:39:47.338Z,102177.78
2022-11-12T16:42:35.643Z,102176.94
2022-11-12T16:45:24.191Z,102174.31
2022-11-12T16:48:18.176Z,102164.75
2022-11-12T16:51:05.456Z,102167.38
2022-11-12T16:53:52.511Z,102168.25
2022-11-12T16:56:39.710Z,102163.94
2022-11-12T16:59:27.858Z,102157.84
2022-11-12T17:02:16.810Z,102158.72
2022-11-12T17:05:04.638Z,102170.94
2022-11-12T17:07:56.426Z,102168.31
2022-11-12T17:10:43.670Z,102171.84
2022-11-12T17:13:30.726Z,102175.31
2022-11-12T17:16:18.702Z,102160.53
2022-11-12T17:19:05.948Z,102163.13
2022-11-12T17:21:53.564Z,102155.28
2022-11-12T17:24:40.350Z,102158.75
2022-11-12T17:27:27.702Z,102154.44
2022-11-12T17:30:15.056Z,102150.94
2022-11-12T17:33:03.046Z,102143.09
2022-11-12T17:35:50.318Z,102149.19
2022-11-12T17:38:37.650Z,102136.09
2022-11-12T17:41:25.508Z,102134.38
2022-11-12T17:44:17.305Z,102141.34
2022-11-12T17:47:04.597Z,102138.72
2022-11-12T17:49:52.571Z,102134.34
2022-11-12T17:52:39.555Z,102142.19
2022-11-12T17:55:26.257Z,102133.53
2022-11-12T17:58:13.647Z,102135.25
2022-11-12T18:01:08.259Z,102140.50
2022-11-12T18:03:57.610Z,102130.03
2022-11-12T18:06:45.909Z,102137.00
2022-11-12T18:09:32.842Z,102131.78
2022-11-12T18:12:19.759Z,102130.03
2022-11-12T18:15:07.346Z,102137.00
2022-11-12T18:17:54.272Z,102130.03
2022-11-12T18:20:42.474Z,102136.13
2022-11-12T18:23:30.740Z,102128.28
2022-11-12T18:26:19.137Z,102130.91
2022-11-12T18:29:07.256Z,102125.69
2022-11-12T18:31:54.079Z,102122.16
2022-11-12T18:34:44.886Z,102131.75
2022-11-12T18:37:32.055Z,102119.56
2022-11-12T18:40:21.883Z,102130.00
2022-11-12T18:43:08.780Z,102127.41
2022-11-12T18:45:56.123Z,102117.81
2022-11-12T18:48:42.937Z,102116.06
2022-11-12T18:51:29.994Z,102109.09
2022-11-12T18:54:16.770Z,102112.59
2022-11-12T18:57:04.995Z,102108.22
2022-11-12T18:59:55.110Z,102107.38
2022-11-12T19:02:43.131Z,102102.13
2022-11-12T19:05:30.259Z,102105.63
2022-11-12T19:08:19.249Z,102103.00
2022-11-12T19:11:09.251Z,102103.03
2022-11-12T19:13:57.670Z,102098.69
2022-11-12T19:16:45.016Z,102103.94
2022-11-12T19:19:32.287Z,102100.47
2022-11-12T19:22:19.387Z,102096.97
2022-11-12T19:25:07.233Z,102096.09
2022-11-12T19:27:54.915Z,102102.19
2022-11-12T19:30:43.172Z,102095.19
2022-11-12T19:33:30.227Z,102093.47
2022-11-12T19:36:19.432Z,102094.38
2022-11-12T19:39:06.429Z,102083.91
2022-11-12T19:41:53.502Z,102084.78
2022-11-12T19:44:40.817Z,102078.69
2022-11-12T19:47:29.243Z,102063.88
2022-11-12T19:50:18.808Z,102066.50
2022-11-12T19:53:09.543Z,102064.75
2022-11-12T19:56:01.419Z,102074.31
2022-11-12T19:58:49.016Z,102063.84
2022-11-12T20:01:36.327Z,102062.09
2022-11-12T20:04:24.618Z,102064.75
2022-11-12T20:07:11.842Z,102062.13
2022-11-12T20:10:01.084Z,102053.44
2022-11-12T20:12:48.986Z,102065.66
2022-11-12T20:15:38.470Z,102061.28
2022-11-12T20:18:26.587Z,102062.16
2022-11-12T20:21:14.875Z,102067.38
2022-11-12T20:24:02.427Z,102068.22
2022-11-12T20:26:49.460Z,102067.38
2022-11-12T20:29:36.754Z,102063.84
2022-11-12T20:32:24.123Z,102056.00
2022-11-12T20:35:17.731Z,102056.00
2022-11-12T20:38:09.272Z,102048.16
2022-11-12T20:41:02.638Z,102045.50
2022-11-12T20:43:52.964Z,102049.88
2022-11-12T20:46:39.819Z,102037.66
2022-11-12T20:49:26.710Z,102042.06
2022-11-12T20:52:13.558Z,102037.66
2022-11-12T20:55:02.458Z,102046.41
2022-11-12T20:57:49.458Z,102035.97
2022-11-12T21:00:36.506Z,102034.22
2022-11-12T21:03:23.374Z,102036.78
2022-11-12T21:06:12.826Z,102046.34
2022-11-12T21:09:00.796Z,102030.66
2022-11-12T21:11:49.338Z,102028.00
2022-11-12T21:14:36.345Z,102030.63
2022-11-12T21:17:23.675Z,102028.84
2022-11-12T21:20:11.506Z,102024.53
2022-11-12T21:22:58.717Z,102025.38
2022-11-12T21:25:46.296Z,102033.22
2022-11-12T21:28:38.145Z,102028.81
2022-11-12T21:31:28.015Z,102026.25
2022-11-12T21:34:15.060Z,102021.88
2022-11-12T21:37:02.199Z,102016.63
2022-11-12T21:39:49.875Z,102013.13
2022-11-12T21:42:36.855Z,102018.34
2022-11-12T21:45:25.135Z,102013.09
2022-11-12T21:48:12.043Z,102013.06
2022-11-12T21:51:04.700Z,102010.44
2022-11-12T21:53:55.853Z,102003.47
2022-11-12T21:56:43.974Z,102006.97
2022-11-12T21:59:31.322Z,102008.69
2022-11-12T22:02:19.695Z,102002.59
2022-11-12T22:05:07.223Z,102009.59
2022-11-12T22:07:54.839Z,102006.97
2022-11-12T22:10:41.602Z,102005.22
2022-11-12T22:13:29.142Z,102002.59
2022-11-12T22:16:18.338Z,102006.94
2022-11-12T22:19:06.511Z,102003.44
2022-11-12T22:21:53.864Z,101999.09
2022-11-12T22:24:40.880Z,102006.03
2022-11-12T22:27:31.351Z,101992.06
2022-11-12T22:30:18.416Z,101989.44
2022-11-12T22:33:05.877Z,101985.03
2022-11-12T22:35:54.187Z,101986.72
2022-11-12T22:38:42.921Z,101974.50
2022-11-12T22:41:32.159Z,101975.34
2022-11-12T22:44:20.583Z,101971.88
2022-11-12T22:47:07.845Z,101971.00
2022-11-12T22:49:55.019Z,101962.28
2022-11-12T22:52:48.883Z,101952.66
2022-11-12T22:55:36.799Z,101946.56
2022-11-12T22:58:23.973Z,101957.84
2022-11-12T23:01:18.578Z,101948.31
2022-11-12T23:04:07.910Z,101937.88
2022-11-12T23:06:55.256Z,101932.63
2022-11-12T23:09:43.801Z,101937.84
2022-11-12T23:12:30.890Z,101948.22
2022-11-12T23:15:18.031Z,101943.88
2022-11-12T23:18:05.490Z,101934.31
2022-11-12T23:20:52.794Z,101929.09
2022-11-12T23:23:40.643Z,101927.34
2022-11-12T23:26:32.114Z,101928.16
2022-11-12T23:29:19.462Z,101923.81
2022-11-12T23:32:06.468Z,101929.91
2022-11-12T23:34:53.384Z,101932.50
2022-11-12T23:37:40.363Z,101922.06
2022-11-12T23:40:31.118Z,101926.38
2022-11-12T23:43:19.222Z,101917.69
2022-11-12T23:46:06.382Z,101916.84
2022-11-12T23:48:53.307Z,101913.38
2022-11-12T23:51:39.978Z,101912.50
2022-11-12T23:54:27.176Z,101909.03
2022-11-12T23:57:14.213Z,101909.91
